createdAt,value
2024-03-02T00:02:03.883Z,6.35
2024-03-02T00:04:33.727Z,6.28
2024-03-02T00:07:00.663Z,6.12
2024-03-02T00:09:28.439Z,6.24
2024-03-02T00:11:58.059Z,6.39
2024-03-02T00:14:32.049Z,6.42
2024-03-02T00:16:59.753Z,6.09
2024-03-02T00:19:26.394Z,6.47
2024-03-02T00:21:53.262Z,6.35
2024-03-02T00:24:26.522Z,6.49
2024-03-02T00:26:54.804Z,6.28
2024-03-02T00:29:23.697Z,6.60
2024-03-02T00:32:00.640Z,6.62
2024-03-02T00:34:27.625Z,6.60
2024-03-02T00:36:54.255Z,6.57
2024-03-02T00:39:23.528Z,6.52
2024-03-02T00:41:50.068Z,6.60
2024-03-02T00:44:26.384Z,6.27
2024-03-02T00:47:18.998Z,6.17
2024-03-02T00:49:48.191Z,6.40
2024-03-02T00:52:14.870Z,6.61
2024-03-02T00:54:44.112Z,6.55
2024-03-02T00:57:17.215Z,6.38
2024-03-02T00:59:43.830Z,6.44
2024-03-02T01:02:18.197Z,6.77
2024-03-02T01:04:45.607Z,6.82
2024-03-02T01:07:16.939Z,6.66
2024-03-02T01:09:43.940Z,6.85
2024-03-02T01:12:13.281Z,7.00
2024-03-02T01:14:39.891Z,7.06
2024-03-02T01:17:06.730Z,6.95
2024-03-02T01:19:46.723Z,7.00
2024-03-02T01:22:23.831Z,6.94
2024-03-02T01:25:04.251Z,7.02
2024-03-02T01:27:33.441Z,7.14
2024-03-02T01:30:03.435Z,7.17
2024-03-02T01:32:30.047Z,7.18
2024-03-02T01:35:23.006Z,7.26
2024-03-02T01:38:06.892Z,7.16
2024-03-02T01:40:37.257Z,7.31
2024-03-02T01:43:10.749Z,7.33
2024-03-02T01:45:39.713Z,7.33
2024-03-02T01:48:09.514Z,7.59
2024-03-02T01:50:42.932Z,7.42
2024-03-02T01:53:12.702Z,7.41
2024-03-02T01:55:40.900Z,7.72
2024-03-02T01:58:07.493Z,7.72
2024-03-02T02:00:35.478Z,7.89
2024-03-02T02:03:06.637Z,7.93
2024-03-02T02:05:33.874Z,8.15
2024-03-02T02:08:09.952Z,8.17
2024-03-02T02:10:37.618Z,8.17
2024-03-02T02:13:04.499Z,7.99
2024-03-02T02:15:31.847Z,8.02
2024-03-02T02:18:02.250Z,7.98
2024-03-02T02:20:34.032Z,7.87
2024-03-02T02:23:04.934Z,7.95
2024-03-02T02:25:36.586Z,7.81
2024-03-02T02:28:04.519Z,7.91
2024-03-02T02:30:33.548Z,7.74
2024-03-02T02:33:09.887Z,7.78
2024-03-02T02:35:39.409Z,7.48
2024-03-02T02:38:09.133Z,7.57
2024-03-02T02:40:35.742Z,7.55
2024-03-02T02:43:08.693Z,7.43
2024-03-02T02:45:38.897Z,7.47
2024-03-02T02:48:14.487Z,7.42
2024-03-02T02:51:01.222Z,7.33
2024-03-02T02:53:27.763Z,7.48
2024-03-02T02:55:54.489Z,7.47
2024-03-02T02:58:21.094Z,7.31
2024-03-02T03:00:47.915Z,7.26
2024-03-02T03:03:16.041Z,7.28
2024-03-02T03:05:57.064Z,7.33
2024-03-02T03:08:32.786Z,7.13
2024-03-02T03:10:59.485Z,7.12
2024-03-02T03:13:31.044Z,7.28
2024-03-02T03:16:02.075Z,7.27
2024-03-02T03:18:29.897Z,7.32
2024-03-02T03:20:56.475Z,7.30
2024-03-02T03:23:26.649Z,7.11
2024-03-02T03:25:55.784Z,7.24
2024-03-02T03:28:25.887Z,7.18
2024-03-02T03:31:00.645Z,7.29
2024-03-02T03:33:27.543Z,7.16
2024-03-02T03:35:55.941Z,7.02
2024-03-02T03:38:22.541Z,7.06
2024-03-02T03:40:52.026Z,7.29
2024-03-02T03:43:18.940Z,7.26
2024-03-02T03:45:48.310Z,7.18
2024-03-02T03:48:15.990Z,7.09
2024-03-02T03:50:45.618Z,6.92
2024-03-02T03:53:13.770Z,7.04
2024-03-02T03:55:57.297Z,7.09
2024-03-02T03:58:28.844Z,6.96
2024-03-02T04:00:58.809Z,6.92
2024-03-02T04:03:28.674Z,7.06
2024-03-02T04:05:55.522Z,6.83
2024-03-02T04:08:22.006Z,6.91
2024-03-02T04:10:48.775Z,6.81
2024-03-02T04:13:25.731Z,7.04
2024-03-02T04:15:53.385Z,6.88
2024-03-02T04:18:21.233Z,6.86
2024-03-02T04:20:48.874Z,6.96
2024-03-02T04:23:20.307Z,6.80
2024-03-02T04:25:48.565Z,6.66
2024-03-02T04:28:16.760Z,6.66
2024-03-02T04:30:46.110Z,6.49
2024-03-02T04:33:32.788Z,6.73
2024-03-02T04:36:17.174Z,6.64
2024-03-02T04:38:51.402Z,6.43
2024-03-02T04:41:23.801Z,6.33
2024-03-02T04:43:51.167Z,6.30
2024-03-02T04:46:17.513Z,6.31
2024-03-02T04:48:48.246Z,6.31
2024-03-02T04:51:15.385Z,6.37
2024-03-02T04:53:43.256Z,6.28
2024-03-02T04:56:18.867Z,6.17
2024-03-02T04:58:52.866Z,6.11
2024-03-02T05:01:33.339Z,6.20
2024-03-02T05:04:09.157Z,6.03
2024-03-02T05:06:38.461Z,6.20
2024-03-02T05:09:05.236Z,6.23
2024-03-02T05:11:33.596Z,6.06
2024-03-02T05:14:00.105Z,6.31
2024-03-02T05:16:47.901Z,6.21
2024-03-02T05:19:26.705Z,6.16
2024-03-02T05:22:00.665Z,6.02
2024-03-02T05:24:29.455Z,6.05
2024-03-02T05:26:57.314Z,6.09
2024-03-02T05:29:49.007Z,5.85
2024-03-02T05:32:14.033Z,5.88
2024-03-02T05:34:45.404Z,5.80
2024-03-02T05:37:14.846Z,5.86
2024-03-02T05:39:41.501Z,5.68
2024-03-02T05:42:09.039Z,5.81
2024-03-02T05:44:39.227Z,5.73
2024-03-02T05:47:23.423Z,5.75
2024-03-02T05:49:54.287Z,5.51
2024-03-02T05:52:42.400Z,5.57
2024-03-02T05:55:09.539Z,5.71
2024-03-02T05:57:43.074Z,5.67
2024-03-02T06:03:22.250Z,5.42
2024-03-02T06:09:50.751Z,5.43
2024-03-02T06:12:17.758Z,5.41
2024-03-02T06:20:44.057Z,4.97
2024-03-02T06:23:14.154Z,5.00
2024-03-02T06:31:32.027Z,5.10
2024-03-02T06:34:34.348Z,4.92
2024-03-02T06:37:40.683Z,4.80
2024-03-02T06:43:24.915Z,4.98
2024-03-02T06:45:54.196Z,4.97
2024-03-02T06:48:23.892Z,4.81
2024-03-02T06:51:16.508Z,4.87
2024-03-02T06:53:43.836Z,4.88
2024-03-02T06:56:13.606Z,4.94
2024-03-02T06:59:05.019Z,5.21
2024-03-02T07:02:00.746Z,5.22
2024-03-02T07:04:48.405Z,5.01
2024-03-02T07:07:14.882Z,5.04
2024-03-02T07:09:45.799Z,5.09
2024-03-02T07:15:19.221Z,5.27
2024-03-02T07:17:57.366Z,5.11
2024-03-02T07:20:34.687Z,4.97
2024-03-02T07:28:52.562Z,5.24
2024-03-02T07:31:39.671Z,5.37
2024-03-02T07:34:22.483Z,5.23
2024-03-02T07:36:49.003Z,5.26
2024-03-02T07:39:26.192Z,5.10
2024-03-02T07:42:01.378Z,5.25
2024-03-02T07:45:09.619Z,5.27
2024-03-02T07:47:41.158Z,5.50
2024-03-02T07:50:16.125Z,5.28
2024-03-02T07:52:44.769Z,5.65
2024-03-02T07:55:28.809Z,5.39
2024-03-02T07:58:04.567Z,5.62
2024-03-02T08:00:35.932Z,5.92
2024-03-02T08:03:05.284Z,5.84
2024-03-02T08:05:34.317Z,5.87
2024-03-02T08:13:31.866Z,5.97
2024-03-02T08:16:31.852Z,6.20
2024-03-02T08:22:31.641Z,6.14
2024-03-02T08:25:08.280Z,5.94
2024-03-02T08:27:55.611Z,6.20
2024-03-02T08:30:31.269Z,5.98
2024-03-02T08:36:19.759Z,6.29
2024-03-02T08:38:53.617Z,6.49
2024-03-02T08:41:30.317Z,6.42
2024-03-02T08:43:59.171Z,6.47
2024-03-02T08:46:27.133Z,6.61
2024-03-02T08:49:00.181Z,6.64
2024-03-02T08:51:27.071Z,6.65
2024-03-02T08:53:55.594Z,6.96
2024-03-02T08:56:22.293Z,6.86
2024-03-02T08:58:49.002Z,7.10
2024-03-02T09:01:25.768Z,7.24
2024-03-02T09:04:18.271Z,7.20
2024-03-02T09:06:52.368Z,7.14
2024-03-02T09:09:36.648Z,7.30
2024-03-02T09:12:06.042Z,7.42
2024-03-02T09:14:50.772Z,7.33
2024-03-02T09:17:19.530Z,7.45
2024-03-02T09:20:02.497Z,7.64
2024-03-02T09:22:31.859Z,7.88
2024-03-02T09:25:00.878Z,7.77
2024-03-02T09:27:31.873Z,7.99
2024-03-02T09:30:11.206Z,8.47
2024-03-02T09:32:50.886Z,9.56
2024-03-02T09:35:28.749Z,10.19
2024-03-02T09:37:59.177Z,10.80
2024-03-02T09:40:27.080Z,11.31
2024-03-02T09:42:56.233Z,11.54
2024-03-02T09:45:31.729Z,11.62
2024-03-02T09:47:58.359Z,11.30
2024-03-02T09:50:31.431Z,10.35
2024-03-02T09:52:58.118Z,10.43
2024-03-02T09:55:30.083Z,10.02
2024-03-02T09:57:56.830Z,9.77
2024-03-02T10:00:23.513Z,9.46
2024-03-02T10:02:54.980Z,9.39
2024-03-02T10:05:28.564Z,9.77
2024-03-02T10:13:31.225Z,10.31
2024-03-02T10:16:13.815Z,11.16
2024-03-02T10:18:42.936Z,11.33
2024-03-02T10:21:23.427Z,12.54
2024-03-02T10:23:50.001Z,13.04
2024-03-02T10:26:38.375Z,12.71
2024-03-02T10:29:18.103Z,13.00
2024-03-02T10:35:05.585Z,15.04
2024-03-02T10:37:59.416Z,15.53
2024-03-02T10:40:47.149Z,14.85
2024-03-02T10:43:16.301Z,15.05
2024-03-02T10:46:11.150Z,16.48
2024-03-02T10:48:48.563Z,16.61
2024-03-02T11:01:40.893Z,16.98
2024-03-02T11:04:23.041Z,16.20
2024-03-02T11:07:09.658Z,14.96
2024-03-02T11:10:00.535Z,17.61
2024-03-02T11:12:42.812Z,19.95
2024-03-02T11:15:24.605Z,19.25
2024-03-02T11:17:54.283Z,20.34
2024-03-02T11:24:31.951Z,22.91
2024-03-02T11:27:46.482Z,21.81
2024-03-02T11:30:35.289Z,20.44
2024-03-02T11:33:13.701Z,21.75
2024-03-02T11:35:48.389Z,22.09
2024-03-02T11:38:27.038Z,22.53
2024-03-02T11:40:53.712Z,20.51
2024-03-02T11:43:21.689Z,23.21
2024-03-02T11:46:01.613Z,22.43
2024-03-02T11:48:30.666Z,21.35
2024-03-02T11:51:03.021Z,20.61
2024-03-02T11:53:35.488Z,19.40
2024-03-02T11:56:10.695Z,20.68
2024-03-02T11:58:41.131Z,20.31
2024-03-02T12:01:28.313Z,18.73
2024-03-02T12:04:00.024Z,19.54
2024-03-02T12:06:27.459Z,22.07
2024-03-02T12:08:56.962Z,21.69
2024-03-02T12:11:48.152Z,23.22
2024-03-02T12:14:21.094Z,22.16
2024-03-02T12:17:02.160Z,21.98
2024-03-02T12:19:36.248Z,21.69
2024-03-02T12:22:02.890Z,22.46
2024-03-02T12:24:44.736Z,22.58
2024-03-02T12:28:18.587Z,22.00
2024-03-02T12:30:31.491Z,21.31
2024-03-02T12:33:01.441Z,21.68
2024-03-02T12:35:27.862Z,22.29
2024-03-02T12:38:09.258Z,23.36
2024-03-02T12:40:42.849Z,24.05
2024-03-02T12:43:36.941Z,24.08
2024-03-02T12:46:31.805Z,24.22
2024-03-02T12:49:27.415Z,22.85
2024-03-02T12:51:57.033Z,24.10
2024-03-02T12:54:28.085Z,23.68
2024-03-02T13:00:27.396Z,22.82
2024-03-02T13:03:31.678Z,20.08
2024-03-02T13:05:59.564Z,20.25
2024-03-02T13:08:26.085Z,19.73
2024-03-02T13:12:07.899Z,19.25
2024-03-02T13:14:43.499Z,18.22
2024-03-02T13:17:16.851Z,18.96
2024-03-02T13:19:59.703Z,21.05
2024-03-02T13:22:50.264Z,19.52
2024-03-02T13:25:19.863Z,18.04
2024-03-02T13:30:42.598Z,17.79
2024-03-02T13:33:13.938Z,18.32
2024-03-02T13:35:45.945Z,18.33
2024-03-02T13:49:48.909Z,17.70
2024-03-02T13:52:20.584Z,18.64
2024-03-02T13:55:13.968Z,20.00
2024-03-02T13:58:00.953Z,20.40
2024-03-02T14:00:42.719Z,19.13
2024-03-02T14:03:13.157Z,18.95
2024-03-02T14:05:40.358Z,18.69
2024-03-02T14:08:09.460Z,19.50
2024-03-02T14:10:48.587Z,18.17
2024-03-02T14:13:27.098Z,19.10
2024-03-02T14:16:00.787Z,18.96
2024-03-02T14:19:21.750Z,18.61
2024-03-02T14:21:32.482Z,16.85
2024-03-02T14:27:24.420Z,17.16
2024-03-02T14:30:16.066Z,15.65
2024-03-02T14:35:37.895Z,15.79
2024-03-02T14:40:54.577Z,16.45
2024-03-02T14:44:13.608Z,15.91
2024-03-02T14:46:53.762Z,14.97
2024-03-02T14:49:35.981Z,14.59
2024-03-02T14:52:16.313Z,14.56
2024-03-02T14:54:45.464Z,14.58
2024-03-02T14:57:17.296Z,14.52
2024-03-02T15:02:41.369Z,14.66
2024-03-02T15:05:18.187Z,14.54
2024-03-02T15:08:14.998Z,14.56
2024-03-02T15:11:20.150Z,14.47
2024-03-02T15:16:42.622Z,14.60
2024-03-02T15:19:11.344Z,14.57
2024-03-02T15:21:40.791Z,14.53
2024-03-02T15:24:10.298Z,14.49
2024-03-02T15:26:38.609Z,14.36
2024-03-02T15:29:11.638Z,14.29
2024-03-02T15:32:00.100Z,14.11
2024-03-02T15:37:28.861Z,14.24
2024-03-02T15:40:23.189Z,13.84
2024-03-02T15:45:01.770Z,13.62
2024-03-02T15:46:28.744Z,13.40
2024-03-02T15:52:51.992Z,13.10
2024-03-02T15:58:39.025Z,13.01
2024-03-02T16:04:38.542Z,12.83
2024-03-02T16:25:43.974Z,12.21
2024-03-02T16:28:40.245Z,12.29
2024-03-02T16:31:14.741Z,11.79
2024-03-02T16:33:47.907Z,11.89
2024-03-02T16:36:17.380Z,11.78
2024-03-02T16:38:44.076Z,11.72
2024-03-02T16:41:14.900Z,11.77
2024-03-02T16:43:41.419Z,11.67
2024-03-02T16:46:10.674Z,11.70
2024-03-02T16:48:37.259Z,11.59
2024-03-02T16:51:06.642Z,11.31
2024-03-02T16:53:34.564Z,11.34
2024-03-02T16:56:01.579Z,11.14
2024-03-02T16:58:27.991Z,10.99
2024-03-02T17:00:54.521Z,10.87
2024-03-02T17:03:21.110Z,10.89
2024-03-02T17:05:47.573Z,10.68
2024-03-02T17:08:14.093Z,10.76
2024-03-02T17:10:40.675Z,10.69
2024-03-02T17:13:07.234Z,10.61
2024-03-02T17:15:33.667Z,10.56
2024-03-02T17:18:00.235Z,10.33
2024-03-02T17:20:26.994Z,10.34
2024-03-02T17:22:53.418Z,10.18
2024-03-02T17:25:22.190Z,10.11
2024-03-02T17:27:48.995Z,10.09
2024-03-02T17:30:15.746Z,9.88
2024-03-02T17:32:42.216Z,9.91
2024-03-02T17:35:08.877Z,9.71
2024-03-02T17:37:35.342Z,9.84
2024-03-02T17:40:02.044Z,9.81
2024-03-02T17:42:28.513Z,9.74
2024-03-02T17:44:55.198Z,9.61
2024-03-02T17:47:21.599Z,9.53
2024-03-02T17:49:55.888Z,9.54
2024-03-02T17:52:22.529Z,9.34
2024-03-02T17:54:49.221Z,9.46
2024-03-02T17:57:15.644Z,9.35
2024-03-02T17:59:44.795Z,9.10
2024-03-02T18:02:14.319Z,9.13
2024-03-02T18:04:48.075Z,8.98
2024-03-02T18:07:14.884Z,8.86
2024-03-02T18:09:41.530Z,8.94
2024-03-02T18:12:08.494Z,8.76
2024-03-02T18:14:37.122Z,8.62
2024-03-02T18:17:04.914Z,8.85
2024-03-02T18:19:31.432Z,8.79
2024-03-02T18:21:58.597Z,8.82
2024-03-02T18:24:25.029Z,8.69
2024-03-02T18:26:53.269Z,8.74
2024-03-02T18:29:19.641Z,8.92
2024-03-02T18:31:46.149Z,8.90
2024-03-02T18:34:13.833Z,8.64
2024-03-02T18:36:40.409Z,8.92
2024-03-02T18:39:06.863Z,8.83
2024-03-02T18:41:33.514Z,8.83
2024-03-02T18:44:00.050Z,8.91
2024-03-02T18:46:26.513Z,8.89
2024-03-02T18:48:53.083Z,8.94
2024-03-02T18:51:21.915Z,9.00
2024-03-02T18:53:51.494Z,8.97
2024-03-02T18:56:18.360Z,8.86
2024-03-02T18:58:44.883Z,9.00
2024-03-02T19:01:11.727Z,9.15
2024-03-02T19:03:38.198Z,9.07
2024-03-02T19:06:04.902Z,9.10
2024-03-02T19:08:31.275Z,9.22
2024-03-02T19:10:57.683Z,9.13
2024-03-02T19:13:24.081Z,9.19
2024-03-02T19:15:50.746Z,9.18
2024-03-02T19:18:17.459Z,9.16
2024-03-02T19:20:44.567Z,9.19
2024-03-02T19:23:18.909Z,9.13
2024-03-02T19:25:51.862Z,9.06
2024-03-02T19:28:18.434Z,8.97
2024-03-02T19:30:46.768Z,8.98
2024-03-02T19:33:14.019Z,9.00
2024-03-02T19:35:40.442Z,9.20
2024-03-02T19:38:07.118Z,9.16
2024-03-02T19:40:36.809Z,9.19
2024-03-02T19:43:03.308Z,9.28
2024-03-02T19:45:29.829Z,9.23
2024-03-02T19:47:56.221Z,9.24
2024-03-02T19:50:22.881Z,9.22
2024-03-02T19:52:53.108Z,9.29
2024-03-02T19:55:19.795Z,9.38
2024-03-02T19:57:46.397Z,9.41
2024-03-02T20:00:16.501Z,9.39
2024-03-02T20:02:46.086Z,9.18
2024-03-02T20:05:12.549Z,9.40
2024-03-02T20:07:40.807Z,9.39
2024-03-02T20:10:08.424Z,9.26
2024-03-02T20:12:35.006Z,9.38
2024-03-02T20:15:02.242Z,9.33
2024-03-02T20:17:28.738Z,9.33
2024-03-02T20:19:55.531Z,9.17
2024-03-02T20:22:22.477Z,9.23
2024-03-02T20:24:48.979Z,9.25
2024-03-02T20:27:18.968Z,9.42
2024-03-02T20:29:45.796Z,9.36
2024-03-02T20:32:16.062Z,9.46
2024-03-02T20:34:42.487Z,9.16
2024-03-02T20:37:09.051Z,9.08
2024-03-02T20:39:35.568Z,9.25
2024-03-02T20:42:02.019Z,9.15
2024-03-02T20:44:28.464Z,9.02
2024-03-02T20:46:55.045Z,8.78
2024-03-02T20:49:21.832Z,8.92
2024-03-02T20:51:48.459Z,8.83
2024-03-02T20:54:17.820Z,8.87
2024-03-02T20:56:44.601Z,8.84
2024-03-02T20:59:11.690Z,8.65
2024-03-02T21:01:38.876Z,8.91
2024-03-02T21:04:05.633Z,8.94
2024-03-02T21:06:32.175Z,9.07
2024-03-02T21:08:58.649Z,9.17
2024-03-02T21:11:25.150Z,9.10
2024-03-02T21:13:51.537Z,9.05
2024-03-02T21:16:18.146Z,9.13
2024-03-02T21:18:44.658Z,9.19
2024-03-02T21:21:11.322Z,9.10
2024-03-02T21:23:37.899Z,9.11
2024-03-02T21:26:04.619Z,9.04
2024-03-02T21:28:31.306Z,9.04
2024-03-02T21:30:57.812Z,9.06
2024-03-02T21:33:27.613Z,9.08
2024-03-02T21:35:54.156Z,9.03
2024-03-02T21:38:20.643Z,9.06
2024-03-02T21:40:47.161Z,9.03
2024-03-02T21:43:13.909Z,9.05
2024-03-02T21:45:40.392Z,9.03
2024-03-02T21:48:07.163Z,8.98
2024-03-02T21:50:33.679Z,8.92
2024-03-02T21:53:00.708Z,8.99
2024-03-02T21:55:27.051Z,9.03
2024-03-02T21:57:56.284Z,8.95
2024-03-02T22:00:22.851Z,8.82
2024-03-02T22:02:49.390Z,8.91
2024-03-02T22:05:15.843Z,8.57
2024-03-02T22:07:44.710Z,8.77
2024-03-02T22:10:11.243Z,8.66
2024-03-02T22:12:38.284Z,8.58
2024-03-02T22:15:08.210Z,8.59
2024-03-02T22:17:34.944Z,8.66
2024-03-02T22:20:01.586Z,8.68
2024-03-02T22:22:30.702Z,8.42
2024-03-02T22:24:57.243Z,8.40
2024-03-02T22:27:26.822Z,8.69
2024-03-02T22:29:53.356Z,8.71
2024-03-02T22:32:20.971Z,8.59
2024-03-02T22:34:50.208Z,8.61
2024-03-02T22:37:16.657Z,8.62
2024-03-02T22:39:43.249Z,8.44
2024-03-02T22:42:09.833Z,8.28
2024-03-02T22:44:36.332Z,8.41
2024-03-02T22:47:03.004Z,8.40
2024-03-02T22:49:30.022Z,8.18
2024-03-02T22:51:58.109Z,8.26
2024-03-02T22:54:24.627Z,8.26
2024-03-02T22:56:51.189Z,8.13
2024-03-02T22:59:17.781Z,8.22
2024-03-02T23:01:44.436Z,8.21
2024-03-02T23:04:12.284Z,8.34
2024-03-02T23:06:38.825Z,8.32
2024-03-02T23:09:05.948Z,8.36
2024-03-02T23:11:32.489Z,8.22
2024-03-02T23:13:58.909Z,8.15
2024-03-02T23:16:28.280Z,8.11
2024-03-02T23:18:55.527Z,8.12
2024-03-02T23:21:22.163Z,8.12
2024-03-02T23:23:49.768Z,8.20
2024-03-02T23:26:16.274Z,8.26
2024-03-02T23:28:42.748Z,8.26
2024-03-02T23:31:10.742Z,8.08
2024-03-02T23:33:38.327Z,8.27
2024-03-02T23:36:05.164Z,8.31
2024-03-02T23:38:31.843Z,8.41
2024-03-02T23:40:58.353Z,8.20
2024-03-02T23:43:24.965Z,8.27
2024-03-02T23:45:52.554Z,8.29
2024-03-02T23:48:21.253Z,8.38
2024-03-02T23:50:47.797Z,8.47
2024-03-02T23:53:14.363Z,8.22
2024-03-02T23:55:51.633Z,8.09
2024-03-02T23:58:20.154Z,8.34
